createdAt,value
2023-04-04T00:00:45.066Z,3.20
2023-04-04T00:03:13.224Z,3.67
2023-04-04T00:05:42.764Z,3.40
2023-04-04T00:08:10.790Z,3.50
2023-04-04T00:10:39.260Z,3.60
2023-04-04T00:13:08.019Z,3.63
2023-04-04T00:15:36.782Z,3.03
2023-04-04T00:18:04.936Z,4.13
2023-04-04T00:20:33.136Z,3.90
2023-04-04T00:23:02.627Z,3.80
2023-04-04T00:25:30.828Z,3.07
2023-04-04T00:28:00.949Z,3.43
2023-04-04T00:30:29.734Z,3.47
2023-04-04T00:32:58.379Z,3.73
2023-04-04T00:35:26.774Z,3.60
2023-04-04T00:37:55.067Z,3.40
2023-04-04T00:40:24.796Z,3.40
2023-04-04T00:42:53.221Z,3.87
2023-04-04T00:45:21.600Z,3.60
2023-04-04T00:47:51.570Z,3.40
2023-04-04T00:50:19.900Z,3.50
2023-04-04T00:52:48.048Z,3.97
2023-04-04T00:55:16.541Z,3.70
2023-04-04T00:57:46.269Z,3.77
2023-04-04T01:00:16.037Z,3.90
2023-04-04T01:02:44.379Z,3.53
2023-04-04T01:05:13.230Z,3.47
2023-04-04T01:07:42.922Z,3.60
2023-04-04T01:10:13.221Z,3.53
2023-04-04T01:12:43.394Z,4.17
2023-04-04T01:15:13.101Z,3.90
2023-04-04T01:17:42.002Z,3.63
2023-04-04T01:20:14.069Z,3.97
2023-04-04T01:22:48.197Z,4.07
2023-04-04T01:25:20.140Z,4.33
2023-04-04T01:27:56.842Z,3.97
2023-04-04T01:30:27.265Z,3.50
2023-04-04T01:33:00.566Z,3.47
2023-04-04T01:35:37.133Z,3.43
2023-04-04T01:38:15.633Z,3.80
2023-04-04T01:40:49.547Z,3.90
2023-04-04T01:43:22.368Z,3.63
2023-04-04T01:45:50.747Z,3.70
2023-04-04T01:48:19.861Z,4.00
2023-04-04T01:50:52.293Z,3.73
2023-04-04T01:53:21.458Z,3.60
2023-04-04T01:59:51.188Z,2.93
2023-04-04T02:02:19.554Z,3.77
2023-04-04T02:04:47.648Z,4.33
2023-04-04T02:07:15.930Z,3.73
2023-04-04T02:09:44.458Z,3.63
2023-04-04T02:12:12.751Z,3.80
2023-04-04T02:14:40.800Z,4.30
2023-04-04T02:17:10.795Z,4.07
2023-04-04T02:19:39.347Z,4.10
2023-04-04T02:22:07.442Z,3.60
2023-04-04T02:24:35.567Z,3.87
2023-04-04T02:27:04.532Z,3.40
2023-04-04T02:29:32.540Z,3.80
2023-04-04T02:32:01.495Z,3.90
2023-04-04T02:34:30.902Z,3.57
2023-04-04T02:36:59.297Z,3.93
2023-04-04T02:39:29.739Z,3.77
2023-04-04T02:41:58.585Z,4.20
2023-04-04T02:44:26.659Z,4.10
2023-04-04T02:46:55.785Z,3.67
2023-04-04T02:49:31.799Z,3.87
2023-04-04T02:52:01.259Z,4.40
2023-04-04T02:54:34.080Z,4.23
2023-04-04T02:57:04.527Z,4.13
2023-04-04T02:59:32.579Z,3.90
2023-04-04T03:02:00.694Z,4.03
2023-04-04T03:04:30.866Z,3.80
2023-04-04T03:06:59.503Z,3.80
2023-04-04T03:09:27.615Z,3.93
2023-04-04T03:11:55.797Z,4.00
2023-04-04T03:14:26.541Z,4.10
2023-04-04T03:16:56.251Z,3.83
2023-04-04T03:19:26.130Z,3.87
2023-04-04T03:21:56.190Z,4.03
2023-04-04T03:24:24.241Z,3.80
2023-04-04T03:26:53.333Z,3.73
2023-04-04T03:29:22.456Z,3.97
2023-04-04T03:31:50.815Z,3.87
2023-04-04T03:34:19.068Z,3.47
2023-04-04T03:36:47.685Z,3.57
2023-04-04T03:39:17.107Z,4.07
2023-04-04T03:41:45.608Z,3.60
2023-04-04T03:44:13.878Z,3.80
2023-04-04T03:46:41.903Z,4.00
2023-04-04T03:49:12.086Z,3.97
2023-04-04T03:51:40.313Z,4.23
2023-04-04T03:54:08.337Z,3.73
2023-04-04T03:56:37.960Z,3.57
2023-04-04T03:59:07.784Z,4.37
2023-04-04T04:01:35.915Z,3.90
2023-04-04T04:04:04.275Z,3.70
2023-04-04T04:06:32.589Z,3.60
2023-04-04T04:09:01.169Z,3.73
2023-04-04T04:11:29.591Z,3.50
2023-04-04T04:13:59.003Z,3.57
2023-04-04T04:16:28.201Z,4.07
2023-04-04T04:18:56.631Z,4.23
2023-04-04T04:21:34.849Z,3.70
2023-04-04T04:24:03.295Z,4.10
2023-04-04T04:26:31.435Z,4.10
2023-04-04T04:29:01.828Z,4.30
2023-04-04T04:31:33.166Z,4.47
2023-04-04T04:34:03.351Z,3.73
2023-04-04T04:39:27.230Z,3.87
2023-04-04T04:42:27.439Z,4.20
2023-04-04T04:45:02.219Z,4.43
2023-04-04T04:47:33.695Z,4.23
2023-04-04T04:50:05.853Z,4.53
2023-04-04T04:52:41.012Z,4.90
2023-04-04T04:55:09.860Z,4.73
2023-04-04T04:57:40.372Z,4.83
2023-04-04T05:00:18.475Z,4.27
2023-04-04T05:02:48.669Z,4.33
2023-04-04T05:05:21.665Z,4.43
2023-04-04T05:07:49.851Z,4.70
2023-04-04T05:10:17.947Z,4.73
2023-04-04T05:12:46.469Z,4.77
2023-04-04T05:15:22.424Z,4.20
2023-04-04T05:17:53.664Z,4.33
2023-04-04T05:20:23.270Z,4.50
2023-04-04T05:22:52.273Z,3.90
2023-04-04T05:25:29.050Z,4.13
2023-04-04T05:27:58.555Z,4.40
2023-04-04T05:30:28.011Z,4.57
2023-04-04T05:33:08.539Z,4.63
2023-04-04T05:35:38.249Z,4.07
2023-04-04T05:38:06.673Z,5.03
2023-04-04T05:40:36.892Z,4.10
2023-04-04T05:43:10.159Z,4.43
2023-04-04T05:45:50.944Z,4.73
2023-04-04T05:48:19.036Z,4.40
2023-04-04T05:50:52.664Z,4.73
2023-04-04T05:53:28.667Z,4.27
2023-04-04T05:55:58.615Z,4.60
2023-04-04T05:58:31.425Z,3.97
2023-04-04T06:01:03.668Z,4.43
2023-04-04T06:03:32.210Z,4.90
2023-04-04T06:06:04.376Z,4.83
2023-04-04T06:08:40.082Z,4.40
2023-04-04T06:11:18.553Z,5.20
2023-04-04T06:13:47.135Z,4.80
2023-04-04T06:16:19.897Z,4.97
2023-04-04T06:18:49.609Z,4.30
2023-04-04T06:21:18.077Z,4.93
2023-04-04T06:23:46.116Z,4.60
2023-04-04T06:26:14.832Z,4.70
2023-04-04T06:28:49.378Z,4.50
2023-04-04T06:31:21.443Z,5.00
2023-04-04T06:33:50.816Z,5.00
2023-04-04T06:36:22.274Z,4.80
2023-04-04T06:38:50.532Z,4.53
2023-04-04T06:41:22.563Z,4.70
2023-04-04T06:43:52.511Z,5.20
2023-04-04T06:46:22.091Z,4.80
2023-04-04T06:48:50.547Z,5.40
2023-04-04T06:51:19.178Z,4.30
2023-04-04T06:53:48.231Z,5.57
2023-04-04T06:56:16.564Z,5.90
2023-04-04T06:58:44.783Z,3.20
2023-04-04T07:01:12.896Z,5.00
2023-04-04T07:03:44.440Z,5.00
2023-04-04T07:06:12.575Z,5.20
2023-04-04T07:08:40.770Z,4.77
2023-04-04T07:11:09.042Z,5.10
2023-04-04T07:13:37.091Z,5.90
2023-04-04T07:16:05.430Z,5.53
2023-04-04T07:18:33.640Z,5.97
2023-04-04T07:21:03.076Z,3.93
2023-04-04T07:23:31.201Z,5.53
2023-04-04T07:25:59.332Z,4.80
2023-04-04T07:28:27.704Z,5.23
2023-04-04T07:30:55.761Z,5.60
2023-04-04T07:33:23.789Z,6.47
2023-04-04T07:35:52.192Z,7.03
2023-04-04T07:38:21.958Z,5.70
2023-04-04T07:40:50.501Z,5.50
2023-04-04T07:43:18.799Z,5.33
2023-04-04T07:45:46.841Z,5.37
2023-04-04T07:48:14.948Z,5.40
2023-04-04T07:50:42.976Z,5.90
2023-04-04T07:53:11.287Z,5.20
2023-04-04T07:55:40.829Z,5.90
2023-04-04T07:58:08.827Z,7.47
2023-04-04T08:00:37.032Z,5.97
2023-04-04T08:03:07.041Z,5.60
2023-04-04T08:05:36.838Z,6.13
2023-04-04T08:08:06.089Z,6.03
2023-04-04T08:10:34.846Z,5.73
2023-04-04T08:13:06.244Z,5.47
2023-04-04T08:15:34.382Z,4.90
2023-04-04T08:18:03.067Z,5.60
2023-04-04T08:20:32.334Z,5.50
2023-04-04T08:23:00.872Z,5.80
2023-04-04T08:25:31.210Z,5.80
2023-04-04T08:27:59.924Z,5.57
2023-04-04T08:30:35.578Z,6.60
2023-04-04T08:33:08.064Z,5.00
2023-04-04T08:35:37.897Z,5.73
2023-04-04T08:38:13.277Z,4.80
2023-04-04T08:40:47.298Z,5.37
2023-04-04T08:43:21.435Z,5.40
2023-04-04T08:46:04.231Z,5.70
2023-04-04T08:48:34.086Z,5.47
2023-04-04T08:51:06.303Z,5.27
2023-04-04T08:53:45.949Z,5.70
2023-04-04T08:56:19.548Z,5.70
2023-04-04T08:58:52.475Z,5.77
2023-04-04T09:01:28.533Z,5.83
2023-04-04T09:04:05.531Z,6.50
2023-04-04T09:06:49.520Z,5.70
2023-04-04T09:09:22.140Z,5.00
2023-04-04T09:11:54.161Z,5.50
2023-04-04T09:14:23.788Z,4.93
2023-04-04T09:16:59.000Z,5.07
2023-04-04T09:19:31.583Z,5.80
2023-04-04T09:22:01.996Z,4.93
2023-04-04T09:24:42.345Z,5.53
2023-04-04T09:27:13.643Z,4.73
2023-04-04T09:29:45.454Z,5.93
2023-04-04T09:32:41.260Z,5.93
2023-04-04T09:35:14.355Z,6.07
2023-04-04T09:37:46.593Z,5.30
2023-04-04T09:40:17.744Z,4.53
2023-04-04T09:42:49.241Z,5.40
2023-04-04T09:45:29.414Z,5.00
2023-04-04T09:48:02.703Z,5.07
2023-04-04T09:50:33.963Z,6.13
2023-04-04T09:53:04.064Z,5.30
2023-04-04T09:55:37.002Z,5.63
2023-04-04T09:58:15.696Z,5.60
2023-04-04T10:00:48.600Z,5.90
2023-04-04T10:03:19.567Z,5.80
2023-04-04T10:05:50.432Z,5.27
2023-04-04T10:08:24.025Z,5.77
2023-04-04T10:11:09.531Z,5.23
2023-04-04T10:13:44.319Z,5.53
2023-04-04T10:16:14.011Z,5.50
2023-04-04T10:18:44.692Z,4.50
2023-04-04T10:21:15.784Z,4.80
2023-04-04T10:23:48.868Z,5.50
2023-04-04T10:26:18.192Z,5.50
2023-04-04T10:28:47.256Z,6.50
2023-04-04T10:31:24.729Z,5.50
2023-04-04T10:34:10.831Z,6.13
2023-04-04T10:36:47.499Z,4.77
2023-04-04T10:39:29.372Z,5.37
2023-04-04T10:41:58.716Z,5.33
2023-04-04T10:44:34.221Z,6.00
2023-04-04T10:47:10.071Z,5.57
2023-04-04T10:49:41.549Z,5.97
2023-04-04T10:52:11.502Z,5.30
2023-04-04T10:54:40.968Z,6.07
2023-04-04T10:57:09.979Z,5.20
2023-04-04T10:59:58.275Z,4.23
2023-04-04T11:02:48.639Z,4.90
2023-04-04T11:05:22.329Z,5.70
2023-04-04T11:08:07.531Z,5.47
2023-04-04T11:10:40.807Z,6.17
2023-04-04T11:13:14.118Z,5.60
2023-04-04T11:15:57.606Z,6.00
2023-04-04T11:18:50.371Z,4.77
2023-04-04T11:21:24.211Z,5.33
2023-04-04T11:24:15.863Z,5.63
2023-04-04T11:26:45.940Z,5.80
2023-04-04T11:29:25.257Z,5.60
2023-04-04T11:31:54.726Z,5.60
2023-04-04T11:34:32.913Z,6.17
2023-04-04T11:37:18.002Z,5.50
2023-04-04T11:39:56.745Z,5.80
2023-04-04T11:42:25.248Z,6.10
2023-04-04T11:45:19.637Z,5.90
2023-04-04T11:47:52.022Z,6.20
2023-04-04T11:50:21.236Z,5.20
2023-04-04T11:52:55.091Z,5.03
2023-04-04T11:55:33.405Z,5.50
2023-04-04T11:58:13.381Z,5.63
2023-04-04T12:00:41.760Z,4.97
2023-04-04T12:03:12.201Z,5.60
2023-04-04T12:05:42.602Z,5.97
2023-04-04T12:08:13.145Z,6.17
2023-04-04T12:10:41.920Z,7.07
2023-04-04T12:13:11.634Z,6.70
2023-04-04T12:15:39.898Z,6.20
2023-04-04T12:18:09.900Z,6.10
2023-04-04T12:20:41.576Z,5.73
2023-04-04T12:23:10.495Z,5.10
2023-04-04T12:25:44.249Z,6.23
2023-04-04T12:28:12.988Z,5.30
2023-04-04T12:30:41.346Z,6.07
2023-04-04T12:33:09.561Z,5.60
2023-04-04T12:35:39.203Z,5.57
2023-04-04T12:38:10.660Z,5.53
2023-04-04T12:40:41.286Z,6.00
2023-04-04T12:43:10.180Z,6.40
2023-04-04T12:45:40.231Z,5.97
2023-04-04T12:48:13.732Z,6.07
2023-04-04T12:50:55.844Z,5.60
2023-04-04T12:53:29.523Z,6.20
2023-04-04T12:56:03.334Z,5.60
2023-04-04T12:58:34.320Z,4.83
2023-04-04T13:01:04.867Z,6.03
2023-04-04T13:03:34.883Z,5.70
2023-04-04T13:06:03.124Z,5.00
2023-04-04T13:08:31.638Z,5.87
2023-04-04T13:11:04.702Z,6.10
2023-04-04T13:13:35.320Z,5.60
2023-04-04T13:16:04.548Z,6.23
2023-04-04T13:18:38.761Z,6.23
2023-04-04T13:21:10.926Z,6.00
2023-04-04T13:23:41.500Z,4.80
2023-04-04T13:26:11.979Z,5.90
2023-04-04T13:28:40.428Z,5.60
2023-04-04T13:31:09.928Z,6.40
2023-04-04T13:33:38.951Z,5.60
2023-04-04T13:36:07.789Z,5.50
2023-04-04T13:38:36.082Z,5.90
2023-04-04T13:41:04.278Z,6.33
2023-04-04T13:43:33.728Z,7.10
2023-04-04T13:46:02.291Z,6.80
2023-04-04T13:48:31.215Z,5.93
2023-04-04T13:50:59.188Z,6.67
2023-04-04T13:53:27.257Z,6.27
2023-04-04T13:58:26.839Z,6.53
2023-04-04T14:00:57.291Z,5.90
2023-04-04T14:03:25.488Z,5.77
2023-04-04T14:05:54.192Z,5.30
2023-04-04T14:08:22.322Z,5.20
2023-04-04T14:10:50.398Z,5.60
2023-04-04T14:13:19.818Z,4.87
2023-04-04T14:15:50.161Z,6.37
2023-04-04T14:18:20.169Z,5.67
2023-04-04T14:20:48.322Z,6.57
2023-04-04T14:23:16.362Z,4.80
2023-04-04T14:25:44.468Z,5.60
2023-04-04T14:28:12.402Z,5.40
2023-04-04T14:30:40.540Z,5.80
2023-04-04T14:33:08.663Z,5.60
2023-04-04T14:35:38.303Z,5.30
2023-04-04T14:38:06.535Z,6.30
2023-04-04T14:40:34.613Z,5.40
2023-04-04T14:43:02.630Z,5.63
2023-04-04T14:45:32.147Z,4.80
2023-04-04T14:48:00.428Z,6.13
2023-04-04T14:50:28.655Z,5.47
2023-04-04T14:52:58.109Z,5.10
2023-04-04T14:55:26.531Z,5.00
2023-04-04T14:58:01.850Z,5.00
2023-04-04T15:00:30.952Z,5.20
2023-04-04T15:02:59.504Z,5.70
2023-04-04T15:05:27.634Z,4.83
2023-04-04T15:07:57.034Z,5.47
2023-04-04T15:10:25.188Z,4.80
2023-04-04T15:12:53.500Z,5.67
2023-04-04T15:15:23.164Z,5.60
2023-04-04T15:17:52.363Z,4.80
2023-04-04T15:20:20.424Z,5.37
2023-04-04T15:22:48.804Z,5.90
2023-04-04T15:25:18.342Z,4.83
2023-04-04T15:27:47.703Z,5.37
2023-04-04T15:30:16.285Z,5.03
2023-04-04T15:32:44.367Z,5.77
2023-04-04T15:35:19.246Z,5.60
2023-04-04T15:37:49.069Z,5.27
2023-04-04T15:40:19.111Z,5.37
2023-04-04T15:42:47.864Z,5.90
2023-04-04T15:45:16.859Z,5.70
2023-04-04T15:47:45.323Z,5.33
2023-04-04T15:50:13.646Z,5.17
2023-04-04T15:52:41.849Z,5.33
2023-04-04T15:55:13.662Z,5.70
2023-04-04T15:57:44.754Z,5.97
2023-04-04T16:00:16.926Z,6.23
2023-04-04T16:02:45.391Z,4.33
2023-04-04T16:05:13.688Z,5.57
2023-04-04T16:07:41.825Z,6.50
2023-04-04T16:10:11.324Z,5.20
2023-04-04T16:12:39.503Z,5.50
2023-04-04T16:15:11.826Z,5.30
2023-04-04T16:17:40.233Z,5.00
2023-04-04T16:20:09.669Z,6.07
2023-04-04T16:22:38.015Z,5.80
2023-04-04T16:25:08.544Z,5.50
2023-04-04T16:27:36.893Z,5.50
2023-04-04T16:30:06.130Z,6.40
2023-04-04T16:32:35.638Z,5.57
2023-04-04T16:35:03.974Z,5.13
2023-04-04T16:37:32.007Z,6.43
2023-04-04T16:40:01.252Z,5.03
2023-04-04T16:42:29.551Z,5.97
2023-04-04T16:44:57.585Z,5.37
2023-04-04T16:47:26.826Z,5.50
2023-04-04T16:49:58.880Z,5.90
2023-04-04T16:52:26.980Z,6.07
2023-04-04T16:54:55.440Z,5.53
2023-04-04T16:57:23.680Z,5.57
2023-04-04T16:59:54.939Z,5.23
2023-04-04T17:02:23.688Z,6.10
2023-04-04T17:04:52.441Z,5.50
2023-04-04T17:07:22.237Z,6.27
2023-04-04T17:09:51.471Z,5.60
2023-04-04T17:12:20.166Z,5.53
2023-04-04T17:14:48.331Z,6.00
2023-04-04T17:17:16.403Z,5.40
2023-04-04T17:19:44.547Z,5.37
2023-04-04T17:22:13.256Z,5.60
2023-04-04T17:24:42.677Z,6.23
2023-04-04T17:27:10.899Z,5.70
2023-04-04T17:29:39.284Z,5.43
2023-04-04T17:32:07.812Z,5.40
2023-04-04T17:34:36.344Z,6.00
2023-04-04T17:37:04.661Z,6.30
2023-04-04T17:39:32.745Z,6.43
2023-04-04T17:42:03.017Z,5.50
2023-04-04T17:44:31.141Z,6.00
2023-04-04T17:46:59.699Z,5.67
2023-04-04T17:49:27.824Z,6.30
2023-04-04T17:51:55.934Z,5.67
2023-04-04T17:54:26.632Z,5.70
2023-04-04T17:56:54.737Z,6.37
2023-04-04T17:59:24.575Z,6.67
2023-04-04T18:01:52.837Z,6.27
2023-04-04T18:04:22.224Z,7.63
2023-04-04T18:06:51.206Z,8.60
2023-04-04T18:09:19.801Z,8.03
2023-04-04T18:11:51.270Z,8.20
2023-04-04T18:14:19.500Z,7.37
2023-04-04T18:16:49.030Z,7.90
2023-04-04T18:19:17.190Z,9.00
2023-04-04T18:21:48.366Z,9.83
2023-04-04T18:24:16.395Z,9.27
2023-04-04T18:26:45.015Z,10.53
2023-04-04T18:29:13.973Z,11.20
2023-04-04T18:31:42.090Z,9.77
2023-04-04T18:34:15.079Z,10.10
2023-04-04T18:36:43.232Z,9.40
2023-04-04T18:39:11.328Z,10.07
2023-04-04T18:41:39.591Z,8.90
2023-04-04T18:44:08.553Z,9.60
2023-04-04T18:46:38.151Z,9.40
2023-04-04T18:49:07.009Z,9.20
2023-04-04T18:51:36.665Z,10.10
2023-04-04T18:54:05.204Z,10.57
2023-04-04T18:56:33.418Z,10.73
2023-04-04T18:59:01.915Z,11.60
2023-04-04T19:01:31.427Z,11.47
2023-04-04T19:04:00.290Z,10.30
2023-04-04T19:06:28.452Z,10.00
2023-04-04T19:09:00.005Z,9.00
2023-04-04T19:11:28.134Z,8.53
2023-04-04T19:13:56.176Z,8.00
2023-04-04T19:16:24.804Z,7.47
2023-04-04T19:18:53.196Z,7.43
2023-04-04T19:21:21.308Z,8.57
2023-04-04T19:23:49.570Z,8.27
2023-04-04T19:26:19.042Z,7.70
2023-04-04T19:28:47.137Z,6.97
2023-04-04T19:31:22.355Z,8.20
2023-04-04T19:33:51.241Z,7.87
2023-04-04T19:36:20.476Z,7.57
2023-04-04T19:38:49.281Z,6.30
2023-04-04T19:41:34.136Z,7.30
2023-04-04T19:44:02.666Z,7.17
2023-04-04T19:46:33.073Z,8.83
2023-04-04T19:49:03.020Z,8.40
2023-04-04T19:51:42.722Z,7.93
2023-04-04T19:54:17.406Z,9.00
2023-04-04T19:56:51.239Z,9.07
2023-04-04T19:59:56.618Z,7.67
2023-04-04T20:02:51.009Z,8.90
2023-04-04T20:05:55.124Z,9.20
2023-04-04T20:08:23.256Z,9.50
2023-04-04T20:10:55.723Z,10.30
2023-04-04T20:13:25.205Z,9.70
2023-04-04T20:16:07.797Z,10.00
2023-04-04T20:18:38.038Z,9.00
2023-04-04T20:21:11.277Z,10.20
2023-04-04T20:23:47.151Z,10.40
2023-04-04T20:26:30.737Z,10.90
2023-04-04T20:29:00.119Z,9.63
2023-04-04T20:31:28.182Z,10.13
2023-04-04T20:33:56.332Z,9.80
2023-04-04T20:36:33.400Z,11.10
2023-04-04T20:39:01.630Z,10.27
2023-04-04T20:41:29.760Z,10.40
2023-04-04T20:44:00.548Z,10.70
2023-04-04T20:46:30.120Z,9.70
2023-04-04T20:49:01.040Z,10.13
2023-04-04T20:51:32.811Z,9.90
2023-04-04T20:54:02.876Z,9.80
2023-04-04T20:56:52.157Z,9.80
2023-04-04T20:59:40.692Z,9.27
2023-04-04T21:02:15.705Z,9.00
2023-04-04T21:04:45.779Z,10.23
2023-04-04T21:07:34.894Z,9.60
2023-04-04T21:10:03.145Z,10.30
2023-04-04T21:12:31.250Z,10.30
2023-04-04T21:15:01.203Z,10.07
2023-04-04T21:17:29.370Z,10.90
2023-04-04T21:19:58.857Z,10.07
2023-04-04T21:22:27.222Z,10.77
2023-04-04T21:24:55.560Z,10.30
2023-04-04T21:27:35.866Z,10.20
2023-04-04T21:30:09.958Z,9.13
2023-04-04T21:32:38.058Z,10.03
2023-04-04T21:35:10.699Z,9.50
2023-04-04T21:37:39.678Z,9.20
2023-04-04T21:40:09.657Z,9.97
2023-04-04T21:42:37.859Z,9.70
2023-04-04T21:45:08.706Z,10.30
2023-04-04T21:47:36.847Z,11.00
2023-04-04T21:50:06.036Z,9.80
2023-04-04T21:52:34.028Z,9.20
2023-04-04T21:55:02.117Z,9.33
2023-04-04T21:57:30.156Z,9.30
2023-04-04T21:59:58.244Z,9.07
2023-04-04T22:02:27.646Z,8.90
2023-04-04T22:04:57.267Z,9.17
2023-04-04T22:07:25.423Z,9.47
2023-04-04T22:09:54.712Z,10.07
2023-04-04T22:12:23.837Z,9.60
2023-04-04T22:14:52.515Z,10.00
2023-04-04T22:17:23.741Z,9.07
2023-04-04T22:19:59.068Z,9.40
2023-04-04T22:22:29.785Z,10.20
2023-04-04T22:25:03.960Z,9.60
2023-04-04T22:27:32.642Z,9.40
2023-04-04T22:30:01.100Z,7.80
2023-04-04T22:32:33.171Z,9.30
2023-04-04T22:35:03.224Z,9.20
2023-04-04T22:37:32.276Z,9.07
2023-04-04T22:40:00.396Z,9.03
2023-04-04T22:42:28.436Z,8.10
2023-04-04T22:44:56.413Z,7.73
2023-04-04T22:47:24.502Z,8.20
2023-04-04T22:49:52.662Z,8.70
2023-04-04T22:52:22.808Z,9.10
2023-04-04T22:54:51.057Z,9.07
2023-04-04T22:57:19.379Z,9.23
2023-04-04T22:59:47.403Z,9.67
2023-04-04T23:02:15.514Z,8.27
2023-04-04T23:04:43.590Z,9.00
2023-04-04T23:07:12.041Z,7.90
2023-04-04T23:09:41.580Z,8.60
2023-04-04T23:12:09.977Z,7.87
2023-04-04T23:14:38.871Z,9.00
2023-04-04T23:17:07.174Z,8.30
2023-04-04T23:19:35.299Z,8.50
2023-04-04T23:22:03.431Z,9.20
2023-04-04T23:24:32.662Z,8.40
2023-04-04T23:27:02.070Z,8.60
2023-04-04T23:29:30.102Z,8.10
2023-04-04T23:31:58.234Z,8.80
2023-04-04T23:34:26.270Z,9.37
2023-04-04T23:36:54.481Z,8.70
2023-04-04T23:39:22.687Z,9.60
2023-04-04T23:41:51.125Z,8.10
2023-04-04T23:44:20.603Z,9.53
2023-04-04T23:46:49.850Z,8.23
2023-04-04T23:49:19.898Z,8.00
2023-04-04T23:51:47.940Z,8.43
2023-04-04T23:54:15.933Z,8.33
2023-04-04T23:56:44.088Z,8.13
2023-04-04T23:59:12.495Z,8.00
